sensor_id;sensor_type;location;lat;lon;timestamp;pressure;altitude;pressure_sealevel;temperature;humidity
19112;BME280;9688;51.906;8.376;2023-07-22T00:00:46;100527.69;;;14.00;100.00
19112;BME280;9688;51.906;8.376;2023-07-22T00:03:32;100516.16;;;13.99;100.00
19112;BME280;9688;51.906;8.376;2023-07-22T00:06:18;100525.03;;;14.00;100.00
19112;BME280;9688;51.906;8.376;2023-07-22T00:09:05;100520.56;;;14.00;100.00
19112;BME280;9688;51.906;8.376;2023-07-22T00:11:51;100521.34;;;14.02;100.00
19112;BME280;9688;51.906;8.376;2023-07-22T00:14:39;100524.84;;;14.03;100.00
19112;BME280;9688;51.906;8.376;2023-07-22T00:17:27;100524.00;;;14.02;100.00
19112;BME280;9688;51.906;8.376;2023-07-22T00:20:14;100524.69;;;14.06;100.00
19112;BME280;9688;51.906;8.376;2023-07-22T00:23:00;100524.44;;;14.11;100.00
19112;BME280;9688;51.906;8.376;2023-07-22T00:25:46;100523.25;;;14.16;100.00
19112;BME280;9688;51.906;8.376;2023-07-22T00:28:32;100516.03;;;14.18;100.00
19112;BME280;9688;51.906;8.376;2023-07-22T00:31:18;100511.66;;;14.17;100.00
19112;BME280;9688;51.906;8.376;2023-07-22T00:34:05;100518.97;;;14.14;100.00
19112;BME280;9688;51.906;8.376;2023-07-22T00:36:51;100518.97;;;14.14;100.00
19112;BME280;9688;51.906;8.376;2023-07-22T00:39:37;100519.81;;;14.14;100.00
19112;BME280;9688;51.906;8.376;2023-07-22T00:42:23;100520.66;;;14.15;100.00
19112;BME280;9688;51.906;8.376;2023-07-22T00:45:09;100520.59;;;14.16;100.00
19112;BME280;9688;51.906;8.376;2023-07-22T00:47:55;100514.22;;;14.19;100.00
19112;BME280;9688;51.906;8.376;2023-07-22T00:50:42;100507.97;;;14.20;100.00
19112;BME280;9688;51.906;8.376;2023-07-22T00:53:28;100513.28;;;14.20;100.00
19112;BME280;9688;51.906;8.376;2023-07-22T00:56:14;100510.88;;;14.15;100.00
19112;BME280;9688;51.906;8.376;2023-07-22T00:59:00;100511.72;;;14.16;100.00
19112;BME280;9688;51.906;8.376;2023-07-22T01:01:47;100505.50;;;14.17;100.00
19112;BME280;9688;51.906;8.376;2023-07-22T01:04:34;100495.78;;;14.16;100.00
19112;BME280;9688;51.906;8.376;2023-07-22T01:07:21;100494.00;;;14.16;100.00
19112;BME280;9688;51.906;8.376;2023-07-22T01:10:07;100493.13;;;14.16;100.00
19112;BME280;9688;51.906;8.376;2023-07-22T01:12:53;100491.41;;;14.15;100.00
19112;BME280;9688;51.906;8.376;2023-07-22T01:15:40;100493.28;;;14.13;100.00
19112;BME280;9688;51.906;8.376;2023-07-22T01:18:26;100484.81;;;14.06;100.00
19112;BME280;9688;51.906;8.376;2023-07-22T01:21:12;100488.44;;;14.05;100.00
19112;BME280;9688;51.906;8.376;2023-07-22T01:24:02;100487.72;;;14.01;100.00
19112;BME280;9688;51.906;8.376;2023-07-22T01:26:47;100490.38;;;14.01;100.00
19112;BME280;9688;51.906;8.376;2023-07-22T01:29:33;100493.03;;;14.01;100.00
19112;BME280;9688;51.906;8.376;2023-07-22T01:32:20;100494.78;;;14.02;100.00
19112;BME280;9688;51.906;8.376;2023-07-22T01:35:06;100491.94;;;14.05;100.00
19112;BME280;9688;51.906;8.376;2023-07-22T01:37:52;100496.31;;;14.06;100.00
19112;BME280;9688;51.906;8.376;2023-07-22T01:40:40;100493.63;;;14.06;100.00
19112;BME280;9688;51.906;8.376;2023-07-22T01:43:27;100490.91;;;14.08;100.00
19112;BME280;9688;51.906;8.376;2023-07-22T01:46:12;100495.34;;;14.07;100.00
19112;BME280;9688;51.906;8.376;2023-07-22T01:48:58;100489.28;;;14.05;100.00
19112;BME280;9688;51.906;8.376;2023-07-22T01:51:44;100485.66;;;14.06;100.00
19112;BME280;9688;51.906;8.376;2023-07-22T01:54:30;100483.00;;;14.06;100.00
19112;BME280;9688;51.906;8.376;2023-07-22T01:57:17;100482.22;;;14.04;100.00
19112;BME280;9688;51.906;8.376;2023-07-22T02:00:04;100495.50;;;14.04;100.00
19112;BME280;9688;51.906;8.376;2023-07-22T02:02:51;100485.06;;;14.01;100.00
19112;BME280;9688;51.906;8.376;2023-07-22T02:05:37;100492.78;;;14.06;100.00
19112;BME280;9688;51.906;8.376;2023-07-22T02:08:22;100495.34;;;14.07;100.00
19112;BME280;9688;51.906;8.376;2023-07-22T02:11:08;100485.50;;;14.10;100.00
19112;BME280;9688;51.906;8.376;2023-07-22T02:13:55;100488.94;;;14.12;100.00
19112;BME280;9688;51.906;8.376;2023-07-22T02:16:41;100493.28;;;14.13;100.00
19112;BME280;9688;51.906;8.376;2023-07-22T02:19:26;100493.22;;;14.14;100.00
19112;BME280;9688;51.906;8.376;2023-07-22T02:22:12;100492.03;;;14.20;100.00
19112;BME280;9688;51.906;8.376;2023-07-22T02:24:58;100488.34;;;14.22;100.00
19112;BME280;9688;51.906;8.376;2023-07-22T02:27:44;100491.78;;;14.24;100.00
19112;BME280;9688;51.906;8.376;2023-07-22T02:30:33;100489.81;;;14.28;100.00
19112;BME280;9688;51.906;8.376;2023-07-22T02:33:22;100495.78;;;14.32;100.00
19112;BME280;9688;51.906;8.376;2023-07-22T02:36:08;100493.81;;;14.35;100.00
19112;BME280;9688;51.906;8.376;2023-07-22T02:38:54;100493.81;;;14.35;100.00
19112;BME280;9688;51.906;8.376;2023-07-22T02:41:39;100493.81;;;14.35;100.00
19112;BME280;9688;51.906;8.376;2023-07-22T02:44:25;100489.44;;;14.34;100.00
19112;BME280;9688;51.906;8.376;2023-07-22T02:47:13;100488.50;;;14.35;100.00
19112;BME280;9688;51.906;8.376;2023-07-22T02:49:59;100483.03;;;14.38;100.00
19112;BME280;9688;51.906;8.376;2023-07-22T02:52:45;100488.50;;;14.35;100.00
19112;BME280;9688;51.906;8.376;2023-07-22T02:55:31;100494.78;;;14.34;100.00
19112;BME280;9688;51.906;8.376;2023-07-22T02:58:16;100494.94;;;14.31;100.00
19112;BME280;9688;51.906;8.376;2023-07-22T03:01:03;100488.06;;;14.27;100.00
19112;BME280;9688;51.906;8.376;2023-07-22T03:03:50;100482.84;;;14.25;100.00
19112;BME280;9688;51.906;8.376;2023-07-22T03:06:36;100486.34;;;14.26;100.00
19112;BME280;9688;51.906;8.376;2023-07-22T03:09:22;100485.59;;;14.24;100.00
19112;BME280;9688;51.906;8.376;2023-07-22T03:12:08;100487.31;;;14.25;100.00
19112;BME280;9688;51.906;8.376;2023-07-22T03:14:54;100491.50;;;14.29;100.00
19112;BME280;9688;51.906;8.376;2023-07-22T03:17:40;100487.03;;;14.29;100.00
19112;BME280;9688;51.906;8.376;2023-07-22T03:20:28;100490.59;;;14.30;100.00
19112;BME280;9688;51.906;8.376;2023-07-22T03:23:14;100488.66;;;14.32;100.00
19112;BME280;9688;51.906;8.376;2023-07-22T03:26:01;100493.81;;;14.35;100.00
19112;BME280;9688;51.906;8.376;2023-07-22T03:28:46;100496.31;;;14.38;100.00
19112;BME280;9688;51.906;8.376;2023-07-22T03:31:32;100500.50;;;14.42;100.00
19112;BME280;9688;51.906;8.376;2023-07-22T03:34:18;100498.53;;;14.46;100.00
19112;BME280;9688;51.906;8.376;2023-07-22T03:37:06;100500.25;;;14.47;100.00
19112;BME280;9688;51.906;8.376;2023-07-22T03:39:51;100500.16;;;14.48;100.00
19112;BME280;9688;51.906;8.376;2023-07-22T03:42:38;100504.56;;;14.49;100.00
19112;BME280;9688;51.906;8.376;2023-07-22T03:45:24;100504.56;;;14.49;100.00
19112;BME280;9688;51.906;8.376;2023-07-22T03:48:09;100510.81;;;14.48;100.00
19112;BME280;9688;51.906;8.376;2023-07-22T03:50:55;100505.41;;;14.50;100.00
19112;BME280;9688;51.906;8.376;2023-07-22T03:53:43;100503.66;;;14.49;100.00
19112;BME280;9688;51.906;8.376;2023-07-22T03:56:30;100515.19;;;14.49;100.00
19112;BME280;9688;51.906;8.376;2023-07-22T03:59:16;100503.53;;;14.52;100.00
19112;BME280;9688;51.906;8.376;2023-07-22T04:02:01;100509.72;;;14.53;100.00
19112;BME280;9688;51.906;8.376;2023-07-22T04:04:50;100507.81;;;14.55;100.00
19112;BME280;9688;51.906;8.376;2023-07-22T04:07:36;100509.56;;;14.56;100.00
19112;BME280;9688;51.906;8.376;2023-07-22T04:10:24;100505.88;;;14.58;100.00
19112;BME280;9688;51.906;8.376;2023-07-22T04:13:09;100504.91;;;14.59;100.00
19112;BME280;9688;51.906;8.376;2023-07-22T04:15:55;100507.38;;;14.62;100.00
19112;BME280;9688;51.906;8.376;2023-07-22T04:18:41;100509.03;;;14.65;100.00
19112;BME280;9688;51.906;8.376;2023-07-22T04:21:27;100511.50;;;14.68;100.00
19112;BME280;9688;51.906;8.376;2023-07-22T04:24:13;100513.25;;;14.69;100.00
19112;BME280;9688;51.906;8.376;2023-07-22T04:27:01;100510.28;;;14.73;100.00
19112;BME280;9688;51.906;8.376;2023-07-22T04:29:47;100515.34;;;14.78;100.00
19112;BME280;9688;51.906;8.376;2023-07-22T04:32:32;100524.13;;;14.80;100.00
19112;BME280;9688;51.906;8.376;2023-07-22T04:35:19;100523.94;;;14.83;100.00
19112;BME280;9688;51.906;8.376;2023-07-22T04:38:05;100524.00;;;14.82;100.00
19112;BME280;9688;51.906;8.376;2023-07-22T04:40:51;100528.13;;;14.87;100.00
19112;BME280;9688;51.906;8.376;2023-07-22T04:43:38;100524.53;;;14.88;100.00
19112;BME280;9688;51.906;8.376;2023-07-22T04:46:25;100535.84;;;14.92;100.00
19112;BME280;9688;51.906;8.376;2023-07-22T04:49:12;100531.38;;;14.92;100.00
19112;BME280;9688;51.906;8.376;2023-07-22T04:51:58;100526.00;;;14.94;100.00
19112;BME280;9688;51.906;8.376;2023-07-22T04:54:44;100534.72;;;14.96;100.00
19112;BME280;9688;51.906;8.376;2023-07-22T04:57:31;100534.53;;;14.99;100.00
19112;BME280;9688;51.906;8.376;2023-07-22T05:00:18;100535.22;;;15.03;100.00
19112;BME280;9688;51.906;8.376;2023-07-22T05:03:05;100528.88;;;15.05;100.00
19112;BME280;9688;51.906;8.376;2023-07-22T05:05:51;100537.34;;;15.12;100.00
19112;BME280;9688;51.906;8.376;2023-07-22T05:08:37;100536.13;;;15.17;100.00
19112;BME280;9688;51.906;8.376;2023-07-22T05:11:23;100532.25;;;15.23;100.00
19112;BME280;9688;51.906;8.376;2023-07-22T05:14:09;100530.00;;;15.31;100.00
19112;BME280;9688;51.906;8.376;2023-07-22T05:16:56;100534.75;;;15.40;100.00
19112;BME280;9688;51.906;8.376;2023-07-22T05:19:43;100542.28;;;15.48;100.00
19112;BME280;9688;51.906;8.376;2023-07-22T05:22:29;100551.53;;;15.57;100.00
19112;BME280;9688;51.906;8.376;2023-07-22T05:25:15;100539.75;;;15.61;100.00
19112;BME280;9688;51.906;8.376;2023-07-22T05:28:00;100549.25;;;15.65;100.00
19112;BME280;9688;51.906;8.376;2023-07-22T05:30:46;100553.56;;;15.68;100.00
19112;BME280;9688;51.906;8.376;2023-07-22T05:33:34;100549.88;;;15.70;100.00
19112;BME280;9688;51.906;8.376;2023-07-22T05:36:21;100549.88;;;15.70;100.00
19112;BME280;9688;51.906;8.376;2023-07-22T05:39:07;100555.78;;;15.75;100.00
19112;BME280;9688;51.906;8.376;2023-07-22T05:41:53;100559.03;;;15.80;100.00
19112;BME280;9688;51.906;8.376;2023-07-22T05:44:39;100563.78;;;15.75;100.00
19112;BME280;9688;51.906;8.376;2023-07-22T05:47:24;100559.22;;;15.77;100.00
19112;BME280;9688;51.906;8.376;2023-07-22T05:50:13;100562.94;;;15.75;100.00
19112;BME280;9688;51.906;8.376;2023-07-22T05:52:59;100552.34;;;15.73;100.00
19112;BME280;9688;51.906;8.376;2023-07-22T05:55:45;100556.66;;;15.76;100.00
19112;BME280;9688;51.906;8.376;2023-07-22T05:58:31;100558.00;;;15.83;100.00
19112;BME280;9688;51.906;8.376;2023-07-22T06:01:17;100553.63;;;15.96;100.00
19112;BME280;9688;51.906;8.376;2023-07-22T06:04:03;100548.47;;;16.08;100.00
19112;BME280;9688;51.906;8.376;2023-07-22T06:06:51;100554.44;;;16.25;100.00
19112;BME280;9688;51.906;8.376;2023-07-22T06:09:37;100556.03;;;16.42;99.65
19112;BME280;9688;51.906;8.376;2023-07-22T06:12:22;100550.09;;;16.51;99.55
19112;BME280;9688;51.906;8.376;2023-07-22T06:15:09;100549.94;;;16.55;98.92
19112;BME280;9688;51.906;8.376;2023-07-22T06:17:55;100558.41;;;16.61;98.30
19112;BME280;9688;51.906;8.376;2023-07-22T06:20:41;100557.50;;;16.75;98.58
19112;BME280;9688;51.906;8.376;2023-07-22T06:23:28;100551.56;;;16.84;97.79
19112;BME280;9688;51.906;8.376;2023-07-22T06:26:14;100551.00;;;16.93;97.23
19112;BME280;9688;51.906;8.376;2023-07-22T06:29:00;100546.00;;;17.02;97.29
19112;BME280;9688;51.906;8.376;2023-07-22T06:31:46;100545.13;;;17.01;97.05
19112;BME280;9688;51.906;8.376;2023-07-22T06:34:32;100543.75;;;17.08;97.11
19112;BME280;9688;51.906;8.376;2023-07-22T06:37:18;100543.47;;;17.13;96.61
19112;BME280;9688;51.906;8.376;2023-07-22T06:40:07;100552.75;;;17.20;96.66
19112;BME280;9688;51.906;8.376;2023-07-22T06:42:52;100548.81;;;17.26;96.32
19112;BME280;9688;51.906;8.376;2023-07-22T06:45:39;100548.81;;;17.26;96.62
19112;BME280;9688;51.906;8.376;2023-07-22T06:48:25;100554.38;;;17.23;96.66
19112;BME280;9688;51.906;8.376;2023-07-22T06:51:11;100556.63;;;17.29;96.24
19112;BME280;9688;51.906;8.376;2023-07-22T06:53:57;100549.16;;;17.34;95.84
19112;BME280;9688;51.906;8.376;2023-07-22T06:56:44;100551.53;;;17.38;95.49
19112;BME280;9688;51.906;8.376;2023-07-22T06:59:30;100556.44;;;17.45;95.39
19112;BME280;9688;51.906;8.376;2023-07-22T07:02:16;100553.78;;;17.45;95.22
19112;BME280;9688;51.906;8.376;2023-07-22T07:05:02;100553.56;;;17.48;94.88
19112;BME280;9688;51.906;8.376;2023-07-22T07:07:49;100563.84;;;17.67;94.30
19112;BME280;9688;51.906;8.376;2023-07-22T07:10:37;100554.38;;;17.88;94.02
19112;BME280;9688;51.906;8.376;2023-07-22T07:13:24;100557.16;;;17.87;93.26
19112;BME280;9688;51.906;8.376;2023-07-22T07:16:23;100556.94;;;17.90;93.28
19112;BME280;9688;51.906;8.376;2023-07-22T07:19:10;100556.41;;;18.10;92.23
19112;BME280;9688;51.906;8.376;2023-07-22T07:21:55;100554.75;;;18.33;91.41
19112;BME280;9688;51.906;8.376;2023-07-22T07:24:41;100553.66;;;18.48;90.74
19112;BME280;9688;51.906;8.376;2023-07-22T07:27:27;100551.47;;;18.54;90.25
19112;BME280;9688;51.906;8.376;2023-07-22T07:30:15;100550.59;;;18.66;89.67
19112;BME280;9688;51.906;8.376;2023-07-22T07:33:01;100560.31;;;18.80;89.32
19112;BME280;9688;51.906;8.376;2023-07-22T07:35:47;100558.50;;;18.80;89.07
19112;BME280;9688;51.906;8.376;2023-07-22T07:38:33;100549.91;;;18.88;88.62
19112;BME280;9688;51.906;8.376;2023-07-22T07:41:19;100552.00;;;18.96;87.98
19112;BME280;9688;51.906;8.376;2023-07-22T07:44:04;100559.84;;;19.10;87.82
19112;BME280;9688;51.906;8.376;2023-07-22T07:46:52;100551.88;;;19.21;87.14
19112;BME280;9688;51.906;8.376;2023-07-22T07:49:37;100550.78;;;19.24;87.16
19112;BME280;9688;51.906;8.376;2023-07-22T07:52:24;100553.75;;;19.08;86.97
19112;BME280;9688;51.906;8.376;2023-07-22T07:55:10;100552.63;;;18.99;87.64
19112;BME280;9688;51.906;8.376;2023-07-22T07:57:56;100556.16;;;19.00;87.72
19112;BME280;9688;51.906;8.376;2023-07-22T08:00:42;100562.53;;;19.10;87.27
19112;BME280;9688;51.906;8.376;2023-07-22T08:03:29;100558.06;;;19.22;87.03
19112;BME280;9688;51.906;8.376;2023-07-22T08:06:16;100564.09;;;19.36;86.63
19112;BME280;9688;51.906;8.376;2023-07-22T08:09:02;100557.28;;;19.44;86.21
19112;BME280;9688;51.906;8.376;2023-07-22T08:11:49;100558.66;;;19.49;86.09
19112;BME280;9688;51.906;8.376;2023-07-22T08:14:35;100556.22;;;19.57;85.32
19112;BME280;9688;51.906;8.376;2023-07-22T08:17:21;100566.47;;;19.64;85.14
19112;BME280;9688;51.906;8.376;2023-07-22T08:20:09;100570.19;;;19.74;84.30
19112;BME280;9688;51.906;8.376;2023-07-22T08:22:56;100571.66;;;19.78;84.08
19112;BME280;9688;51.906;8.376;2023-07-22T08:25:41;100566.78;;;19.83;83.44
19112;BME280;9688;51.906;8.376;2023-07-22T08:28:28;100562.03;;;19.87;83.17
19112;BME280;9688;51.906;8.376;2023-07-22T08:31:14;100567.78;;;19.82;83.08
19112;BME280;9688;51.906;8.376;2023-07-22T08:34:00;100562.00;;;19.75;83.02
19112;BME280;9688;51.906;8.376;2023-07-22T08:36:47;100572.28;;;19.81;83.06
19112;BME280;9688;51.906;8.376;2023-07-22T08:39:33;100568.63;;;19.82;83.12
19112;BME280;9688;51.906;8.376;2023-07-22T08:42:19;100562.28;;;19.83;82.79
19112;BME280;9688;51.906;8.376;2023-07-22T08:45:08;100565.72;;;19.97;82.42
19112;BME280;9688;51.906;8.376;2023-07-22T08:47:58;100563.03;;;20.08;82.05
19112;BME280;9688;51.906;8.376;2023-07-22T08:50:45;100562.19;;;20.19;81.49
19112;BME280;9688;51.906;8.376;2023-07-22T08:53:33;100558.50;;;20.31;81.00
19112;BME280;9688;51.906;8.376;2023-07-22T08:56:19;100564.25;;;20.38;80.70
19112;BME280;9688;51.906;8.376;2023-07-22T08:59:05;100563.38;;;20.48;80.33
19112;BME280;9688;51.906;8.376;2023-07-22T09:01:52;100562.75;;;20.79;79.25
19112;BME280;9688;51.906;8.376;2023-07-22T09:04:38;100559.63;;;21.27;77.55
19112;BME280;9688;51.906;8.376;2023-07-22T09:07:25;100553.25;;;21.60;75.90
19112;BME280;9688;51.906;8.376;2023-07-22T09:10:15;100552.97;;;21.84;74.65
19112;BME280;9688;51.906;8.376;2023-07-22T09:13:01;100554.22;;;22.11;73.91
19112;BME280;9688;51.906;8.376;2023-07-22T09:15:48;100553.47;;;22.20;72.69
19112;BME280;9688;51.906;8.376;2023-07-22T09:18:34;100556.75;;;22.33;72.03
19112;BME280;9688;51.906;8.376;2023-07-22T09:21:20;100554.38;;;22.40;71.08
19112;BME280;9688;51.906;8.376;2023-07-22T09:24:21;100548.16;;;22.39;70.45
19112;BME280;9688;51.906;8.376;2023-07-22T09:27:08;100538.81;;;22.53;70.17
19112;BME280;9688;51.906;8.376;2023-07-22T09:29:54;100541.41;;;22.74;68.69
19112;BME280;9688;51.906;8.376;2023-07-22T09:32:42;100539.84;;;22.71;68.90
19112;BME280;9688;51.906;8.376;2023-07-22T09:35:30;100538.72;;;22.93;68.74
19112;BME280;9688;51.906;8.376;2023-07-22T09:38:22;100535.78;;;23.26;67.50
19112;BME280;9688;51.906;8.376;2023-07-22T09:41:10;100534.19;;;23.43;66.73
19112;BME280;9688;51.906;8.376;2023-07-22T09:44:03;100528.09;;;23.50;65.98
19112;BME280;9688;51.906;8.376;2023-07-22T09:46:49;100531.31;;;23.73;65.99
19112;BME280;9688;51.906;8.376;2023-07-22T09:49:40;100526.03;;;23.81;65.33
19112;BME280;9688;51.906;8.376;2023-07-22T09:52:26;100524.50;;;23.79;65.27
19112;BME280;9688;51.906;8.376;2023-07-22T09:55:13;100524.91;;;23.74;65.13
19112;BME280;9688;51.906;8.376;2023-07-22T09:58:01;100516.25;;;23.61;64.88
19112;BME280;9688;51.906;8.376;2023-07-22T10:00:50;100515.03;;;23.46;65.40
19112;BME280;9688;51.906;8.376;2023-07-22T10:03:37;100507.66;;;23.38;64.52
19112;BME280;9688;51.906;8.376;2023-07-22T10:06:27;100520.03;;;23.31;63.44
19112;BME280;9688;51.906;8.376;2023-07-22T10:09:15;100522.59;;;23.13;63.90
19112;BME280;9688;51.906;8.376;2023-07-22T10:12:01;100510.94;;;23.03;63.07
19112;BME280;9688;51.906;8.376;2023-07-22T10:14:48;100510.09;;;23.12;62.92
19112;BME280;9688;51.906;8.376;2023-07-22T10:17:36;100505.28;;;23.25;62.22
19112;BME280;9688;51.906;8.376;2023-07-22T10:20:24;100512.06;;;23.29;62.09
19112;BME280;9688;51.906;8.376;2023-07-22T10:23:12;100503.81;;;23.41;60.82
19112;BME280;9688;51.906;8.376;2023-07-22T10:25:59;100503.63;;;23.52;60.88
19112;BME280;9688;51.906;8.376;2023-07-22T10:28:45;100504.19;;;23.65;60.17
19112;BME280;9688;51.906;8.376;2023-07-22T10:31:31;100502.66;;;23.72;59.39
19112;BME280;9688;51.906;8.376;2023-07-22T10:34:20;100491.78;;;23.82;59.28
19112;BME280;9688;51.906;8.376;2023-07-22T10:37:09;100491.06;;;23.90;58.85
19112;BME280;9688;51.906;8.376;2023-07-22T10:39:59;100492.63;;;23.92;58.92
19112;BME280;9688;51.906;8.376;2023-07-22T10:42:54;100488.06;;;24.20;57.90
19112;BME280;9688;51.906;8.376;2023-07-22T10:45:49;100485.56;;;24.37;56.60
19112;BME280;9688;51.906;8.376;2023-07-22T10:48:38;100480.38;;;24.25;56.28
19112;BME280;9688;51.906;8.376;2023-07-22T10:51:35;100474.78;;;24.27;55.84
19112;BME280;9688;51.906;8.376;2023-07-22T10:54:31;100475.16;;;24.14;55.85
19112;BME280;9688;51.906;8.376;2023-07-22T10:57:24;100480.72;;;24.13;55.96
19112;BME280;9688;51.906;8.376;2023-07-22T11:00:17;100477.38;;;24.01;56.11
19112;BME280;9688;51.906;8.376;2023-07-22T11:03:09;100463.66;;;23.85;55.67
19112;BME280;9688;51.906;8.376;2023-07-22T11:05:56;100473.38;;;23.58;56.21
19112;BME280;9688;51.906;8.376;2023-07-22T11:08:44;100465.31;;;23.38;56.47
19112;BME280;9688;51.906;8.376;2023-07-22T11:11:37;100469.75;;;23.40;56.75
19112;BME280;9688;51.906;8.376;2023-07-22T11:14:26;100461.47;;;23.51;56.27
19112;BME280;9688;51.906;8.376;2023-07-22T11:17:11;100462.72;;;23.56;55.88
19112;BME280;9688;51.906;8.376;2023-07-22T11:20:00;100459.88;;;23.58;55.07
19112;BME280;9688;51.906;8.376;2023-07-22T11:22:46;100453.63;;;23.57;55.38
19112;BME280;9688;51.906;8.376;2023-07-22T11:25:35;100453.44;;;23.69;54.97
19112;BME280;9688;51.906;8.376;2023-07-22T11:28:20;100454.44;;;23.77;54.47
19112;BME280;9688;51.906;8.376;2023-07-22T11:31:06;100455.41;;;23.86;54.29
19112;BME280;9688;51.906;8.376;2023-07-22T11:33:53;100452.13;;;23.92;54.14
19112;BME280;9688;51.906;8.376;2023-07-22T11:36:39;100446.13;;;23.89;54.41
19112;BME280;9688;51.906;8.376;2023-07-22T11:39:27;100445.75;;;23.84;53.95
19112;BME280;9688;51.906;8.376;2023-07-22T11:42:17;100449.03;;;23.77;54.05
19112;BME280;9688;51.906;8.376;2023-07-22T11:45:04;100445.91;;;23.82;53.60
19112;BME280;9688;51.906;8.376;2023-07-22T11:47:51;100442.78;;;23.77;53.42
19112;BME280;9688;51.906;8.376;2023-07-22T11:50:37;100437.16;;;23.98;53.19
19112;BME280;9688;51.906;8.376;2023-07-22T11:53:26;100437.25;;;24.06;52.67
19112;BME280;9688;51.906;8.376;2023-07-22T11:56:17;100447.53;;;24.20;52.62
19112;BME280;9688;51.906;8.376;2023-07-22T11:59:05;100444.63;;;24.32;51.82
19112;BME280;9688;51.906;8.376;2023-07-22T12:01:52;100435.19;;;24.36;51.28
19112;BME280;9688;51.906;8.376;2023-07-22T12:04:39;100437.72;;;24.47;50.60
19112;BME280;9688;51.906;8.376;2023-07-22T12:07:27;100429.16;;;24.69;50.27
19112;BME280;9688;51.906;8.376;2023-07-22T12:10:15;100417.31;;;24.88;49.88
19112;BME280;9688;51.906;8.376;2023-07-22T12:13:02;100426.25;;;25.07;49.48
19112;BME280;9688;51.906;8.376;2023-07-22T12:16:04;100421.19;;;25.30;48.78
19112;BME280;9688;51.906;8.376;2023-07-22T12:18:54;100428.84;;;25.34;48.38
19112;BME280;9688;51.906;8.376;2023-07-22T12:21:42;100423.56;;;25.33;48.24
19112;BME280;9688;51.906;8.376;2023-07-22T12:24:31;100424.25;;;25.35;48.20
19112;BME280;9688;51.906;8.376;2023-07-22T12:27:19;100415.25;;;25.26;48.45
19112;BME280;9688;51.906;8.376;2023-07-22T12:30:07;100418.59;;;25.20;48.66
19112;BME280;9688;51.906;8.376;2023-07-22T12:32:54;100412.53;;;25.26;48.60
19112;BME280;9688;51.906;8.376;2023-07-22T12:35:49;100411.50;;;25.19;48.51
19112;BME280;9688;51.906;8.376;2023-07-22T12:38:35;100416.38;;;25.15;48.80
19112;BME280;9688;51.906;8.376;2023-07-22T12:41:22;100415.44;;;25.25;48.43
19112;BME280;9688;51.906;8.376;2023-07-22T12:44:08;100405.66;;;25.32;48.41
19112;BME280;9688;51.906;8.376;2023-07-22T12:46:54;100412.25;;;25.11;48.55
19112;BME280;9688;51.906;8.376;2023-07-22T12:49:45;100404.69;;;25.15;48.82
19112;BME280;9688;51.906;8.376;2023-07-22T12:52:30;100400.03;;;25.25;48.72
19112;BME280;9688;51.906;8.376;2023-07-22T12:55:17;100397.91;;;25.37;48.17
19112;BME280;9688;51.906;8.376;2023-07-22T12:58:02;100404.91;;;25.48;47.20
19112;BME280;9688;51.906;8.376;2023-07-22T13:00:48;100403.78;;;25.58;46.46
19112;BME280;9688;51.906;8.376;2023-07-22T13:03:34;100393.34;;;25.72;46.00
19112;BME280;9688;51.906;8.376;2023-07-22T13:06:22;100398.09;;;25.78;45.89
19112;BME280;9688;51.906;8.376;2023-07-22T13:09:08;100395.41;;;25.78;45.89
19112;BME280;9688;51.906;8.376;2023-07-22T13:11:56;100389.44;;;25.74;46.12
19112;BME280;9688;51.906;8.376;2023-07-22T13:14:42;100387.75;;;25.73;45.92
19112;BME280;9688;51.906;8.376;2023-07-22T13:17:29;100394.03;;;25.82;45.55
19112;BME280;9688;51.906;8.376;2023-07-22T13:20:19;100383.59;;;25.87;45.43
19112;BME280;9688;51.906;8.376;2023-07-22T13:23:08;100380.41;;;25.92;45.36
19112;BME280;9688;51.906;8.376;2023-07-22T13:25:54;100383.94;;;25.84;45.41
19112;BME280;9688;51.906;8.376;2023-07-22T13:28:40;100372.53;;;25.72;45.42
19112;BME280;9688;51.906;8.376;2023-07-22T13:31:25;100366.34;;;25.54;45.47
19112;BME280;9688;51.906;8.376;2023-07-22T13:34:12;100374.56;;;25.36;45.76
19112;BME280;9688;51.906;8.376;2023-07-22T13:36:58;100362.19;;;25.33;45.94
19112;BME280;9688;51.906;8.376;2023-07-22T13:39:48;100365.28;;;25.47;45.62
19112;BME280;9688;51.906;8.376;2023-07-22T13:42:34;100367.78;;;25.74;44.71
19112;BME280;9688;51.906;8.376;2023-07-22T13:45:20;100364.31;;;25.90;44.28
19112;BME280;9688;51.906;8.376;2023-07-22T13:48:08;100361.09;;;25.87;43.94
19112;BME280;9688;51.906;8.376;2023-07-22T13:50:56;100365.25;;;25.73;44.13
19112;BME280;9688;51.906;8.376;2023-07-22T13:53:42;100359.09;;;25.63;44.20
19112;BME280;9688;51.906;8.376;2023-07-22T13:56:32;100347.44;;;25.62;44.52
19112;BME280;9688;51.906;8.376;2023-07-22T13:59:18;100348.53;;;25.77;44.06
19112;BME280;9688;51.906;8.376;2023-07-22T14:02:05;100341.63;;;25.83;44.24
19112;BME280;9688;51.906;8.376;2023-07-22T14:04:51;100358.16;;;25.80;44.24
19112;BME280;9688;51.906;8.376;2023-07-22T14:07:38;100349.84;;;25.73;43.84
19112;BME280;9688;51.906;8.376;2023-07-22T14:10:25;100347.09;;;25.65;43.89
19112;BME280;9688;51.906;8.376;2023-07-22T14:13:13;100345.16;;;25.49;44.04
19112;BME280;9688;51.906;8.376;2023-07-22T14:16:02;100340.84;;;25.65;43.73
19112;BME280;9688;51.906;8.376;2023-07-22T14:18:48;100339.69;;;25.75;43.56
19112;BME280;9688;51.906;8.376;2023-07-22T14:21:36;100343.06;;;25.69;43.37
19112;BME280;9688;51.906;8.376;2023-07-22T14:24:22;100346.75;;;25.60;43.32
19112;BME280;9688;51.906;8.376;2023-07-22T14:27:08;100338.13;;;25.65;42.87
19112;BME280;9688;51.906;8.376;2023-07-22T14:29:56;100329.50;;;25.61;42.56
19112;BME280;9688;51.906;8.376;2023-07-22T14:32:45;100328.94;;;25.49;42.81
19112;BME280;9688;51.906;8.376;2023-07-22T14:35:39;100327.25;;;25.48;42.99
19112;BME280;9688;51.906;8.376;2023-07-22T14:38:25;100330.31;;;25.53;42.87